createdAt,value
2023-11-21T00:00:36.157Z,101308.53
2023-11-21T00:03:05.369Z,101311.69
2023-11-21T00:05:33.785Z,101310.81
2023-11-21T00:08:01.990Z,101318.97
2023-11-21T00:10:30.217Z,101318.56
2023-11-21T00:12:59.781Z,101315.22
2023-11-21T00:15:28.093Z,101318.56
2023-11-21T00:17:56.326Z,101316.47
2023-11-21T00:20:25.030Z,101311.88
2023-11-21T00:22:53.496Z,101327.53
2023-11-21T00:25:21.980Z,101326.09
2023-11-21T00:27:50.256Z,101330.69
2023-11-21T00:30:21.306Z,101330.69
2023-11-21T00:32:49.410Z,101331.94
2023-11-21T00:35:17.939Z,101346.34
2023-11-21T00:37:46.201Z,101349.91
2023-11-21T00:40:16.571Z,101349.47
2023-11-21T00:42:45.092Z,101355.75
2023-11-21T00:45:13.341Z,101357.22
2023-11-21T00:47:43.593Z,101362.00
2023-11-21T00:50:12.292Z,101368.91
2023-11-21T00:52:40.483Z,101367.44
2023-11-21T00:55:09.847Z,101372.44
2023-11-21T00:57:38.664Z,101365.13
2023-11-21T01:00:12.144Z,101373.72
2023-11-21T01:02:40.703Z,101366.59
2023-11-21T01:05:11.631Z,101375.16
2023-11-21T01:07:40.085Z,101380.59
2023-11-21T01:10:09.212Z,101378.09
2023-11-21T01:12:38.376Z,101393.78
2023-11-21T01:15:09.617Z,101396.69
2023-11-21T01:17:38.282Z,101400.03
2023-11-21T01:20:14.442Z,101399.63
2023-11-21T01:22:44.816Z,101406.28
2023-11-21T01:25:15.678Z,101402.31
2023-11-21T01:27:44.900Z,101399.41
2023-11-21T01:30:13.094Z,101397.53
2023-11-21T01:32:41.909Z,101401.69
2023-11-21T01:35:12.111Z,101409.66
2023-11-21T01:37:40.913Z,101414.88
2023-11-21T01:40:15.612Z,101416.53
2023-11-21T01:42:44.663Z,101423.84
2023-11-21T01:45:14.128Z,101425.53
2023-11-21T01:47:43.776Z,101430.97
2023-11-21T01:50:16.844Z,101444.53
2023-11-21T01:52:47.066Z,101438.88
2023-11-21T01:55:27.297Z,101442.66
2023-11-21T01:57:57.671Z,101442.44
2023-11-21T02:00:27.085Z,101446.84
2023-11-21T02:02:55.845Z,101448.50
2023-11-21T02:05:24.352Z,101447.03
2023-11-21T02:07:53.863Z,101454.75
2023-11-21T02:10:25.218Z,101459.38
2023-11-21T02:12:54.216Z,101453.94
2023-11-21T02:15:24.041Z,101466.06
2023-11-21T02:17:54.730Z,101466.91
2023-11-21T02:20:25.862Z,101470.03
2023-11-21T02:22:59.456Z,101473.16
2023-11-21T02:25:29.839Z,101472.94
2023-11-21T02:27:58.965Z,101478.59
2023-11-21T02:30:29.148Z,101477.34
2023-11-21T02:32:58.766Z,101488.81
2023-11-21T02:35:28.067Z,101482.78
2023-11-21T02:37:57.747Z,101491.97
2023-11-21T02:40:28.259Z,101481.72
2023-11-21T02:42:59.122Z,101495.13
2023-11-21T02:45:27.346Z,101498.22
2023-11-21T02:47:58.940Z,101499.91
2023-11-21T02:50:28.263Z,101505.75
2023-11-21T02:53:01.467Z,101503.88
2023-11-21T02:55:30.081Z,101499.47
2023-11-21T02:57:58.805Z,101517.22
2023-11-21T03:00:28.063Z,101503.22
2023-11-21T03:02:57.843Z,101507.84
2023-11-21T03:05:27.896Z,101513.69
2023-11-21T03:07:57.692Z,101522.41
2023-11-21T03:10:28.586Z,101521.19
2023-11-21T03:12:58.470Z,101527.84
2023-11-21T03:15:26.857Z,101527.44
2023-11-21T03:17:55.064Z,101525.78
2023-11-21T03:20:23.370Z,101535.34
2023-11-21T03:22:52.530Z,101539.13
2023-11-21T03:25:25.157Z,101542.06
2023-11-21T03:27:53.607Z,101549.56
2023-11-21T03:30:22.235Z,101549.38
2023-11-21T03:32:50.504Z,101551.66
2023-11-21T03:35:22.188Z,101552.94
2023-11-21T03:37:50.624Z,101550.81
2023-11-21T03:40:19.043Z,101557.91
2023-11-21T03:42:48.702Z,101568.56
2023-11-21T03:45:16.858Z,101571.06
2023-11-21T03:47:45.150Z,101564.16
2023-11-21T03:50:13.366Z,101569.09
2023-11-21T03:52:41.673Z,101578.31
2023-11-21T03:55:11.607Z,101579.13
2023-11-21T03:57:41.610Z,101577.22
2023-11-21T04:00:12.424Z,101587.94
2023-11-21T04:02:40.966Z,101594.16
2023-11-21T04:05:10.536Z,101609.66
2023-11-21T04:07:39.596Z,101599.34
2023-11-21T04:10:09.997Z,101605.81
2023-11-21T04:12:38.697Z,101605.84
2023-11-21T04:15:10.060Z,101599.13
2023-11-21T04:17:40.142Z,101611.69
2023-11-21T04:20:11.283Z,101610.84
2023-11-21T04:22:43.190Z,101615.25
2023-11-21T04:25:12.244Z,101617.94
2023-11-21T04:27:41.359Z,101612.53
2023-11-21T04:30:35.063Z,101620.41
2023-11-21T04:33:04.729Z,101626.09
2023-11-21T04:35:33.038Z,101634.63
2023-11-21T04:38:01.359Z,101643.63
2023-11-21T04:40:29.755Z,101641.94
2023-11-21T04:42:58.374Z,101647.28
2023-11-21T04:45:26.506Z,101659.63
2023-11-21T04:47:54.940Z,101655.72
2023-11-21T04:50:24.620Z,101662.56
2023-11-21T04:52:52.817Z,101670.44
2023-11-21T04:55:21.003Z,101665.59
2023-11-21T04:57:49.363Z,101674.97
2023-11-21T05:00:18.175Z,101681.88
2023-11-21T05:02:46.588Z,101686.41
2023-11-21T05:05:15.779Z,101690.59
2023-11-21T05:07:45.705Z,101691.69
2023-11-21T05:10:16.079Z,101687.25
2023-11-21T05:12:44.792Z,101693.69
2023-11-21T05:15:16.804Z,101698.47
2023-11-21T05:17:45.763Z,101698.63
2023-11-21T05:20:15.661Z,101703.22
2023-11-21T05:22:45.442Z,101699.41
2023-11-21T05:25:14.295Z,101700.31
2023-11-21T05:27:42.608Z,101703.84
2023-11-21T05:30:13.638Z,101697.78
2023-11-21T05:32:43.613Z,101704.00
2023-11-21T05:35:16.470Z,101710.06
2023-11-21T05:37:46.900Z,101711.47
2023-11-21T05:40:15.842Z,101717.72
2023-11-21T05:42:44.167Z,101724.03
2023-11-21T05:45:38.255Z,101729.38
2023-11-21T05:48:09.733Z,101729.94
2023-11-21T05:50:39.465Z,101728.00
2023-11-21T05:53:11.309Z,101744.94
2023-11-21T05:55:40.533Z,101746.53
2023-11-21T05:58:09.068Z,101748.88
2023-11-21T06:00:38.491Z,101741.38
2023-11-21T06:03:07.601Z,101752.63
2023-11-21T06:05:36.162Z,101756.81
2023-11-21T06:08:05.140Z,101765.69
2023-11-21T06:10:35.486Z,101773.00
2023-11-21T06:13:05.046Z,101774.69
2023-11-21T06:15:33.255Z,101773.66
2023-11-21T06:18:01.507Z,101788.81
2023-11-21T06:20:30.028Z,101801.44
2023-11-21T06:22:58.366Z,101806.19
2023-11-21T06:25:26.596Z,101809.34
2023-11-21T06:27:56.172Z,101797.03
2023-11-21T06:30:24.789Z,101804.78
2023-11-21T06:32:54.224Z,101806.00
2023-11-21T06:35:23.540Z,101813.13
2023-11-21T06:37:52.979Z,101812.00
2023-11-21T06:40:21.971Z,101813.41
2023-11-21T06:42:51.305Z,101812.84
2023-11-21T06:45:21.449Z,101828.00
2023-11-21T06:47:50.960Z,101835.75
2023-11-21T06:50:19.668Z,101840.91
2023-11-21T06:52:47.963Z,101837.72
2023-11-21T06:55:17.470Z,101844.81
2023-11-21T06:57:46.440Z,101845.66
2023-11-21T07:00:18.853Z,101854.66
2023-11-21T07:02:48.789Z,101855.66
2023-11-21T07:05:21.887Z,101862.50
2023-11-21T07:07:50.946Z,101861.09
2023-11-21T07:10:19.371Z,101871.38
2023-11-21T07:12:47.557Z,101869.88
2023-11-21T07:15:15.738Z,101880.16
2023-11-21T07:17:45.252Z,101882.22
2023-11-21T07:20:15.449Z,101888.09
2023-11-21T07:22:43.883Z,101892.69
2023-11-21T07:25:13.117Z,101893.72
2023-11-21T07:27:41.650Z,101901.94
2023-11-21T07:30:11.788Z,101909.59
2023-11-21T07:32:41.636Z,101915.03
2023-11-21T07:35:11.315Z,101918.75
2023-11-21T07:37:41.374Z,101916.50
2023-11-21T07:40:11.052Z,101928.00
2023-11-21T07:42:39.575Z,101932.47
2023-11-21T07:45:09.281Z,101934.63
2023-11-21T07:47:37.617Z,101936.22
2023-11-21T07:50:08.726Z,101946.00
2023-11-21T07:52:37.513Z,101950.06
2023-11-21T07:55:09.571Z,101953.81
2023-11-21T07:57:37.824Z,101958.72
2023-11-21T08:00:10.813Z,101953.81
2023-11-21T08:02:44.018Z,101964.63
2023-11-21T08:05:18.743Z,101969.75
2023-11-21T08:07:53.629Z,101973.78
2023-11-21T08:10:23.815Z,101967.97
2023-11-21T08:12:52.717Z,101983.25
2023-11-21T08:15:21.207Z,101983.59
2023-11-21T08:17:49.640Z,101989.19
2023-11-21T08:20:19.336Z,101991.84
2023-11-21T08:22:49.018Z,101985.94
2023-11-21T08:25:19.153Z,101997.63
2023-11-21T08:27:48.908Z,102008.16
2023-11-21T08:30:18.125Z,102010.81
2023-11-21T08:32:46.300Z,102000.13
2023-11-21T08:35:14.956Z,102009.59
2023-11-21T08:37:44.144Z,102007.19
2023-11-21T08:40:18.119Z,102008.41
2023-11-21T08:42:49.075Z,102030.63
2023-11-21T08:45:18.804Z,102021.81
2023-11-21T08:47:47.677Z,102021.81
2023-11-21T08:50:16.445Z,102033.41
2023-11-21T08:52:47.255Z,102031.34
2023-11-21T08:55:15.797Z,102036.41
2023-11-21T08:57:48.800Z,102035.38
2023-11-21T09:00:18.674Z,102035.56
2023-11-21T09:02:48.114Z,102033.03
2023-11-21T09:05:17.503Z,102041.09
2023-11-21T09:07:47.286Z,102044.47
2023-11-21T09:10:16.012Z,102053.63
2023-11-21T09:12:45.000Z,102052.97
2023-11-21T09:15:16.120Z,102063.75
2023-11-21T09:17:46.024Z,102061.34
2023-11-21T09:20:16.073Z,102059.53
2023-11-21T09:22:46.222Z,102062.91
2023-11-21T09:25:14.657Z,102075.56
2023-11-21T09:27:42.790Z,102073.78
2023-11-21T09:30:11.968Z,102078.91
2023-11-21T09:32:46.564Z,102072.13
2023-11-21T09:35:15.778Z,102078.00
2023-11-21T09:37:46.415Z,102084.84
2023-11-21T09:40:18.198Z,102094.84
2023-11-21T09:42:52.960Z,102084.94
2023-11-21T09:45:26.854Z,102100.00
2023-11-21T09:47:58.097Z,102095.53
2023-11-21T09:50:27.915Z,102100.75
2023-11-21T09:53:01.970Z,102111.25
2023-11-21T09:55:31.614Z,102107.69
2023-11-21T09:58:00.160Z,102102.09
2023-11-21T10:00:29.229Z,102106.47
2023-11-21T10:03:24.506Z,102103.78
2023-11-21T10:05:55.740Z,102109.66
2023-11-21T10:08:25.654Z,102115.28
2023-11-21T10:10:55.860Z,102113.25
2023-11-21T10:13:24.157Z,102118.28
2023-11-21T10:15:56.462Z,102130.09
2023-11-21T10:18:27.582Z,102132.78
2023-11-21T10:20:58.218Z,102126.28
2023-11-21T10:23:27.015Z,102124.78
2023-11-21T10:25:56.467Z,102131.16
2023-11-21T10:28:26.886Z,102131.25
2023-11-21T10:30:55.138Z,102136.84
2023-11-21T10:33:31.248Z,102134.53
2023-11-21T10:36:00.885Z,102136.69
2023-11-21T10:38:29.809Z,102132.94
2023-11-21T10:40:58.141Z,102132.94
2023-11-21T10:43:27.942Z,102132.56
2023-11-21T10:46:00.379Z,102131.25
2023-11-21T10:48:29.991Z,102132.56
2023-11-21T10:50:58.621Z,102133.22
2023-11-21T10:53:31.067Z,102142.63
2023-11-21T10:56:07.465Z,102144.16
2023-11-21T10:58:37.442Z,102142.19
2023-11-21T11:01:09.069Z,102143.47
2023-11-21T11:03:38.905Z,102144.97
2023-11-21T11:06:12.599Z,102145.66
2023-11-21T11:08:41.917Z,102137.78
2023-11-21T11:11:12.951Z,102148.19
2023-11-21T11:13:46.276Z,102141.72
2023-11-21T11:16:18.550Z,102144.16
2023-11-21T11:18:48.929Z,102139.75
2023-11-21T11:21:29.981Z,102139.19
2023-11-21T11:24:16.171Z,102135.91
2023-11-21T11:26:52.886Z,102150.63
2023-11-21T11:29:35.536Z,102149.78
2023-11-21T11:32:15.078Z,102155.56
2023-11-21T11:34:52.729Z,102147.88
2023-11-21T11:37:22.137Z,102163.34
2023-11-21T11:39:51.854Z,102152.09
2023-11-21T11:42:21.092Z,102160.91
2023-11-21T11:44:55.753Z,102166.72
2023-11-21T11:47:28.659Z,102164.47
2023-11-21T11:50:08.036Z,102159.41
2023-11-21T11:52:43.924Z,102162.31
2023-11-21T11:55:13.249Z,102170.63
2023-11-21T11:57:42.857Z,102170.63
2023-11-21T12:00:19.915Z,102174.50
2023-11-21T12:02:50.107Z,102170.84
2023-11-21T12:05:21.137Z,102175.25
2023-11-21T12:07:50.279Z,102176.84
2023-11-21T12:10:20.491Z,102181.88
2023-11-21T12:12:50.640Z,102173.06
2023-11-21T12:15:19.697Z,102177.66
2023-11-21T12:17:51.196Z,102180.47
2023-11-21T12:20:24.110Z,102188.75
2023-11-21T12:22:53.239Z,102196.50
2023-11-21T12:25:23.419Z,102195.38
2023-11-21T12:27:53.206Z,102203.03
2023-11-21T12:30:23.230Z,102204.09
2023-11-21T12:32:53.541Z,102203.03
2023-11-21T12:35:25.088Z,102211.88
2023-11-21T12:37:54.854Z,102223.69
2023-11-21T12:40:24.451Z,102220.28
2023-11-21T12:42:54.469Z,102229.56
2023-11-21T12:45:27.045Z,102232.00
2023-11-21T12:48:01.229Z,102241.09
2023-11-21T12:50:35.155Z,102238.75
2023-11-21T12:53:53.940Z,102239.59
2023-11-21T12:56:25.570Z,102249.34
2023-11-21T12:58:58.425Z,102245.13
2023-11-21T13:01:29.736Z,102247.28
2023-11-21T13:03:59.679Z,102252.72
2023-11-21T13:06:34.840Z,102250.84
2023-11-21T13:09:03.212Z,102253.09
2023-11-21T13:11:34.009Z,102248.94
2023-11-21T13:14:02.301Z,102255.53
2023-11-21T13:16:31.624Z,102271.38
2023-11-21T13:18:59.982Z,102260.59
2023-11-21T13:21:30.433Z,102274.84
2023-11-21T13:24:23.554Z,102275.59
2023-11-21T13:26:52.186Z,102272.19
2023-11-21T13:29:22.106Z,102281.53
2023-11-21T13:31:52.053Z,102272.53
2023-11-21T13:34:24.393Z,102276.28
2023-11-21T13:38:12.246Z,102277.03
2023-11-21T13:40:45.903Z,102289.44
2023-11-21T13:43:15.219Z,102295.91
2023-11-21T13:45:44.759Z,102293.28
2023-11-21T13:48:15.930Z,102292.19
2023-11-21T13:50:49.893Z,102312.13
2023-11-21T13:53:23.258Z,102310.16
2023-11-21T13:55:55.766Z,102312.69
2023-11-21T13:58:28.511Z,102323.94
2023-11-21T14:00:58.329Z,102321.31
2023-11-21T14:06:15.359Z,102339.66
2023-11-21T14:08:43.806Z,102336.94
2023-11-21T14:11:18.900Z,102331.19
2023-11-21T14:13:49.852Z,102336.94
2023-11-21T14:16:19.257Z,102337.56
2023-11-21T14:18:56.858Z,102349.94
2023-11-21T14:21:25.289Z,102359.03
2023-11-21T14:23:53.613Z,102359.09
2023-11-21T14:26:25.023Z,102348.03
2023-11-21T14:28:54.713Z,102358.91
2023-11-21T14:31:23.556Z,102357.28
2023-11-21T14:33:51.756Z,102361.88
2023-11-21T14:36:19.934Z,102371.41
2023-11-21T14:38:48.115Z,102384.81
2023-11-21T14:41:16.376Z,102373.38
2023-11-21T14:43:47.080Z,102393.06
2023-11-21T14:46:18.614Z,102384.50
2023-11-21T14:48:54.423Z,102387.75
2023-11-21T14:51:31.807Z,102394.56
2023-11-21T14:54:07.422Z,102411.38
2023-11-21T14:56:36.000Z,102406.81
2023-11-21T14:59:10.094Z,102421.72
2023-11-21T15:01:56.256Z,102426.50
2023-11-21T15:04:34.293Z,102430.94
2023-11-21T15:07:02.556Z,102420.44
2023-11-21T15:09:43.134Z,102433.66
2023-11-21T15:12:16.370Z,102440.13
2023-11-21T15:14:48.592Z,102435.53
2023-11-21T15:17:24.170Z,102431.63
2023-11-21T15:19:52.775Z,102445.56
2023-11-21T15:22:21.358Z,102440.66
2023-11-21T15:24:50.502Z,102441.50
2023-11-21T15:27:19.877Z,102444.72
2023-11-21T15:29:51.292Z,102450.16
2023-11-21T15:32:19.644Z,102457.28
2023-11-21T15:34:48.707Z,102465.78
2023-11-21T15:37:17.190Z,102467.47
2023-11-21T15:39:46.220Z,102472.56
2023-11-21T15:42:14.830Z,102464.47
2023-11-21T15:44:43.006Z,102470.06
2023-11-21T15:47:13.314Z,102468.34
2023-11-21T15:49:41.619Z,102467.16
2023-11-21T15:52:11.960Z,102461.72
2023-11-21T15:54:41.120Z,102465.47
2023-11-21T15:57:34.291Z,102469.19
2023-11-21T16:00:07.163Z,102475.66
2023-11-21T16:02:38.737Z,102471.25
2023-11-21T16:05:08.317Z,102481.94
2023-11-21T16:07:37.426Z,102478.06
2023-11-21T16:10:08.004Z,102477.91
2023-11-21T16:12:37.458Z,102485.53
2023-11-21T16:15:09.443Z,102491.31
2023-11-21T16:17:40.173Z,102499.97
2023-11-21T16:20:12.120Z,102495.41
2023-11-21T16:22:40.965Z,102511.16
2023-11-21T16:25:13.278Z,102524.22
2023-11-21T16:27:43.464Z,102524.06
2023-11-21T16:30:13.132Z,102520.66
2023-11-21T16:32:42.977Z,102525.25
2023-11-21T16:35:13.259Z,102526.09
2023-11-21T16:37:44.473Z,102532.84
2023-11-21T16:40:13.412Z,102555.25
2023-11-21T16:42:41.716Z,102569.34
2023-11-21T16:45:10.948Z,102569.31
2023-11-21T16:47:41.282Z,102563.03
2023-11-21T16:50:11.446Z,102576.09
2023-11-21T16:52:44.516Z,102588.63
2023-11-21T16:55:13.345Z,102584.59
2023-11-21T16:57:41.442Z,102597.13
2023-11-21T17:00:13.515Z,102598.13
2023-11-21T17:02:42.284Z,102608.13
2023-11-21T17:05:20.835Z,102605.94
2023-11-21T17:07:49.118Z,102607.09
2023-11-21T17:10:17.496Z,102604.53
2023-11-21T17:12:45.874Z,102609.66
2023-11-21T17:15:40.227Z,102629.28
2023-11-21T17:18:09.423Z,102648.09
2023-11-21T17:20:40.100Z,102659.28
2023-11-21T17:23:09.820Z,102654.38
2023-11-21T17:25:38.611Z,102652.69
2023-11-21T17:28:06.835Z,102652.31
2023-11-21T17:30:35.417Z,102657.56
2023-11-21T17:33:03.770Z,102662.69
2023-11-21T17:35:37.854Z,102668.41
2023-11-21T17:38:33.254Z,102675.66
2023-11-21T17:41:01.847Z,102689.09
2023-11-21T17:43:30.357Z,102700.63
2023-11-21T17:45:59.501Z,102703.34
2023-11-21T17:49:42.457Z,102687.22
2023-11-21T17:52:11.180Z,102694.97
2023-11-21T17:54:41.693Z,102699.06
2023-11-21T17:57:36.999Z,102710.09
2023-11-21T18:00:07.017Z,102722.47
2023-11-21T18:02:38.743Z,102723.59
2023-11-21T18:05:31.959Z,102717.84
2023-11-21T18:08:00.182Z,102721.91
2023-11-21T18:10:29.939Z,102721.75
2023-11-21T18:12:58.918Z,102729.53
2023-11-21T18:15:27.214Z,102721.25
2023-11-21T18:17:55.506Z,102718.53
2023-11-21T18:20:25.461Z,102717.69
2023-11-21T18:22:53.875Z,102711.56
2023-11-21T18:25:48.118Z,102723.47
2023-11-21T18:28:16.374Z,102723.94
2023-11-21T18:30:44.597Z,102730.19
2023-11-21T18:33:13.493Z,102735.47
2023-11-21T18:35:42.259Z,102724.09
2023-11-21T18:38:11.510Z,102721.22
2023-11-21T18:40:40.062Z,102735.28
2023-11-21T18:43:09.833Z,102740.91
2023-11-21T18:45:38.015Z,102745.28
2023-11-21T18:48:06.963Z,102752.41
2023-11-21T18:50:35.189Z,102756.31
2023-11-21T18:53:03.644Z,102760.53
2023-11-21T18:55:31.972Z,102760.34
2023-11-21T18:58:00.073Z,102758.16
2023-11-21T19:00:31.442Z,102759.31
2023-11-21T19:02:59.996Z,102771.50
2023-11-21T19:05:28.254Z,102762.03
2023-11-21T19:07:56.849Z,102764.72
2023-11-21T19:14:33.923Z,102766.44
2023-11-21T19:18:31.928Z,102765.06
2023-11-21T19:21:01.525Z,102776.72
2023-11-21T19:23:29.828Z,102774.53
2023-11-21T19:25:58.085Z,102769.50
2023-11-21T19:28:27.472Z,102774.91
2023-11-21T19:30:57.222Z,102774.38
2023-11-21T19:33:27.396Z,102780.59
2023-11-21T19:35:54.873Z,102784.34
2023-11-21T19:38:25.384Z,102784.00
2023-11-21T19:40:54.049Z,102787.41
2023-11-21T19:43:22.483Z,102788.56
2023-11-21T19:45:51.199Z,102799.72
2023-11-21T19:48:24.693Z,102802.25
2023-11-21T19:50:52.965Z,102797.50
2023-11-21T19:53:22.128Z,102796.50
2023-11-21T19:55:52.197Z,102799.50
2023-11-21T19:58:20.519Z,102805.63
2023-11-21T20:00:48.917Z,102803.44
2023-11-21T20:03:19.276Z,102805.28
2023-11-21T20:05:47.810Z,102808.81
2023-11-21T20:08:16.639Z,102812.06
2023-11-21T20:10:47.453Z,102841.00
2023-11-21T20:13:18.055Z,102833.72
2023-11-21T20:15:48.836Z,102842.56
2023-11-21T20:18:17.482Z,102856.72
2023-11-21T20:20:49.014Z,102860.13
2023-11-21T20:23:19.316Z,102863.78
2023-11-21T20:25:48.621Z,102862.31
2023-11-21T20:28:18.366Z,102863.16
2023-11-21T20:30:46.748Z,102863.69
2023-11-21T20:33:15.177Z,102854.31
2023-11-21T20:35:43.538Z,102863.47
2023-11-21T20:38:13.516Z,102854.13
2023-11-21T20:40:44.354Z,102861.22
2023-11-21T20:43:12.457Z,102861.94
2023-11-21T20:45:43.593Z,102860.53
2023-11-21T20:48:12.954Z,102868.13
2023-11-21T20:50:41.533Z,102872.69
2023-11-21T20:53:11.990Z,102873.22
2023-11-21T20:55:40.786Z,102873.88
2023-11-21T20:58:10.270Z,102873.69
2023-11-21T21:00:39.398Z,102866.91
2023-11-21T21:03:09.496Z,102874.38
2023-11-21T21:05:38.120Z,102873.88
2023-11-21T21:08:07.631Z,102879.59
2023-11-21T21:10:39.012Z,102883.53
2023-11-21T21:13:07.173Z,102875.03
2023-11-21T21:15:38.536Z,102869.75
2023-11-21T21:18:08.422Z,102873.41
2023-11-21T21:20:37.473Z,102878.81
2023-11-21T21:23:05.927Z,102885.94
2023-11-21T21:25:34.394Z,102891.34
2023-11-21T21:28:03.010Z,102891.72
2023-11-21T21:30:31.255Z,102884.31
2023-11-21T21:33:02.091Z,102890.44
2023-11-21T21:35:31.798Z,102888.19
2023-11-21T21:38:00.750Z,102889.03
2023-11-21T21:40:30.617Z,102890.19
2023-11-21T21:42:59.304Z,102895.69
2023-11-21T21:45:28.318Z,102896.22
2023-11-21T21:47:56.988Z,102887.66
2023-11-21T21:50:26.778Z,102878.06
2023-11-21T21:52:59.270Z,102882.06
2023-11-21T21:55:30.140Z,102882.50
2023-11-21T21:57:58.824Z,102881.66
2023-11-21T22:00:27.201Z,102888.78
2023-11-21T22:02:56.908Z,102891.47
2023-11-21T22:05:28.229Z,102886.59
2023-11-21T22:08:00.669Z,102884.38
2023-11-21T22:10:29.582Z,102882.38
2023-11-21T22:12:58.409Z,102887.00
2023-11-21T22:15:26.788Z,102890.59
2023-11-21T22:17:56.326Z,102895.03
2023-11-21T22:20:27.141Z,102897.44
2023-11-21T22:22:55.717Z,102903.81
2023-11-21T22:25:25.269Z,102911.41
2023-11-21T22:27:53.904Z,102909.56
2023-11-21T22:30:25.142Z,102914.13
2023-11-21T22:32:56.916Z,102918.16
2023-11-21T22:35:25.363Z,102916.50
2023-11-21T22:37:54.452Z,102927.81
2023-11-21T22:40:23.120Z,102934.63
2023-11-21T22:42:52.850Z,102938.63
2023-11-21T22:45:23.807Z,102928.34
2023-11-21T22:47:52.814Z,102933.22
2023-11-21T22:50:47.851Z,102943.44
2023-11-21T22:53:16.150Z,102938.34
2023-11-21T22:55:44.543Z,102942.41
2023-11-21T22:58:39.794Z,102942.72
2023-11-21T23:01:12.457Z,102944.06
2023-11-21T23:03:40.839Z,102937.50
2023-11-21T23:06:09.156Z,102937.75
2023-11-21T23:08:40.970Z,102934.38
2023-11-21T23:11:09.245Z,102928.41
2023-11-21T23:13:37.507Z,102930.13
2023-11-21T23:16:08.139Z,102933.50
2023-11-21T23:18:36.308Z,102925.56
2023-11-21T23:21:04.584Z,102929.56
2023-11-21T23:23:33.218Z,102936.69
2023-11-21T23:26:02.391Z,102936.38
2023-11-21T23:28:31.055Z,102936.59
2023-11-21T23:30:59.416Z,102938.16
2023-11-21T23:33:31.930Z,102941.16
2023-11-21T23:36:00.284Z,102943.59
2023-11-21T23:38:28.676Z,102938.78
2023-11-21T23:40:58.117Z,102939.94
2023-11-21T23:43:27.651Z,102939.84
2023-11-21T23:45:56.110Z,102930.72
2023-11-21T23:48:24.234Z,102938.25
2023-11-21T23:50:53.739Z,102935.56
2023-11-21T23:53:21.979Z,102934.84
2023-11-21T23:55:51.062Z,102938.84
2023-11-21T23:58:19.176Z,102924.63
